sensor_id;sensor_type;location;lat;lon;timestamp;P1;durP1;ratioP1;P2;durP2;ratioP2
17197;SDS011;8715;51.010;6.812;2024-02-16T00:01:28;833.05;;;786.75;;
17197;SDS011;8715;51.010;6.812;2024-02-16T00:04:13;835.35;;;788.78;;
17197;SDS011;8715;51.010;6.812;2024-02-16T00:06:58;834.35;;;787.88;;
17197;SDS011;8715;51.010;6.812;2024-02-16T00:09:43;838.90;;;791.78;;
17197;SDS011;8715;51.010;6.812;2024-02-16T00:12:28;833.70;;;787.17;;
17197;SDS011;8715;51.010;6.812;2024-02-16T00:15:14;836.92;;;789.90;;
17197;SDS011;8715;51.010;6.812;2024-02-16T00:17:59;827.80;;;781.72;;
17197;SDS011;8715;51.010;6.812;2024-02-16T00:20:44;833.53;;;786.95;;
17197;SDS011;8715;51.010;6.812;2024-02-16T00:23:29;831.33;;;785.05;;
17197;SDS011;8715;51.010;6.812;2024-02-16T00:26:15;837.70;;;790.78;;
17197;SDS011;8715;51.010;6.812;2024-02-16T00:28:59;829.97;;;783.53;;
17197;SDS011;8715;51.010;6.812;2024-02-16T00:31:46;832.53;;;786.13;;
17197;SDS011;8715;51.010;6.812;2024-02-16T00:34:31;834.55;;;787.70;;
17197;SDS011;8715;51.010;6.812;2024-02-16T00:37:16;832.60;;;785.97;;
17197;SDS011;8715;51.010;6.812;2024-02-16T00:40:01;837.75;;;790.65;;
17197;SDS011;8715;51.010;6.812;2024-02-16T00:42:46;838.97;;;791.65;;
17197;SDS011;8715;51.010;6.812;2024-02-16T00:45:31;831.80;;;785.28;;
17197;SDS011;8715;51.010;6.812;2024-02-16T00:48:18;835.65;;;789.15;;
17197;SDS011;8715;51.010;6.812;2024-02-16T00:51:03;831.28;;;785.08;;
17197;SDS011;8715;51.010;6.812;2024-02-16T00:53:48;833.25;;;786.85;;
17197;SDS011;8715;51.010;6.812;2024-02-16T00:56:32;825.83;;;779.90;;
17197;SDS011;8715;51.010;6.812;2024-02-16T00:59:18;827.42;;;781.33;;
17197;SDS011;8715;51.010;6.812;2024-02-16T01:02:03;829.58;;;783.28;;
17197;SDS011;8715;51.010;6.812;2024-02-16T01:04:50;833.50;;;787.40;;
17197;SDS011;8715;51.010;6.812;2024-02-16T01:07:35;828.88;;;782.92;;
17197;SDS011;8715;51.010;6.812;2024-02-16T01:10:20;836.20;;;789.40;;
17197;SDS011;8715;51.010;6.812;2024-02-16T01:13:05;833.22;;;786.72;;
17197;SDS011;8715;51.010;6.812;2024-02-16T01:15:51;831.78;;;785.13;;
17197;SDS011;8715;51.010;6.812;2024-02-16T01:18:35;832.50;;;786.00;;
17197;SDS011;8715;51.010;6.812;2024-02-16T01:21:22;833.45;;;786.50;;
17197;SDS011;8715;51.010;6.812;2024-02-16T01:24:08;835.22;;;788.47;;
17197;SDS011;8715;51.010;6.812;2024-02-16T01:26:53;834.35;;;787.47;;
17197;SDS011;8715;51.010;6.812;2024-02-16T01:29:38;830.88;;;784.60;;
17197;SDS011;8715;51.010;6.812;2024-02-16T01:32:23;840.40;;;792.80;;
17197;SDS011;8715;51.010;6.812;2024-02-16T01:35:08;838.38;;;791.08;;
17197;SDS011;8715;51.010;6.812;2024-02-16T01:37:54;836.42;;;789.47;;
17197;SDS011;8715;51.010;6.812;2024-02-16T01:40:39;837.38;;;790.10;;
17197;SDS011;8715;51.010;6.812;2024-02-16T01:43:24;833.92;;;787.40;;
17197;SDS011;8715;51.010;6.812;2024-02-16T01:46:11;838.78;;;791.55;;
17197;SDS011;8715;51.010;6.812;2024-02-16T01:48:56;832.65;;;786.05;;
17197;SDS011;8715;51.010;6.812;2024-02-16T01:51:42;842.00;;;794.42;;
17197;SDS011;8715;51.010;6.812;2024-02-16T01:54:30;840.25;;;793.13;;
17197;SDS011;8715;51.010;6.812;2024-02-16T01:57:15;833.35;;;786.40;;
17197;SDS011;8715;51.010;6.812;2024-02-16T02:00:00;836.15;;;789.08;;
17197;SDS011;8715;51.010;6.812;2024-02-16T02:02:45;833.45;;;786.80;;
17197;SDS011;8715;51.010;6.812;2024-02-16T02:05:31;832.88;;;786.30;;
17197;SDS011;8715;51.010;6.812;2024-02-16T02:08:16;827.25;;;781.08;;
17197;SDS011;8715;51.010;6.812;2024-02-16T02:11:02;835.58;;;788.45;;
17197;SDS011;8715;51.010;6.812;2024-02-16T02:13:49;843.00;;;795.13;;
17197;SDS011;8715;51.010;6.812;2024-02-16T02:16:34;833.70;;;787.00;;
17197;SDS011;8715;51.010;6.812;2024-02-16T02:19:19;836.45;;;789.45;;
17197;SDS011;8715;51.010;6.812;2024-02-16T02:22:09;834.15;;;787.22;;
17197;SDS011;8715;51.010;6.812;2024-02-16T02:24:54;837.92;;;790.33;;
17197;SDS011;8715;51.010;6.812;2024-02-16T02:27:40;836.40;;;789.22;;
17197;SDS011;8715;51.010;6.812;2024-02-16T02:30:25;840.40;;;792.85;;
17197;SDS011;8715;51.010;6.812;2024-02-16T02:33:10;831.33;;;784.70;;
17197;SDS011;8715;51.010;6.812;2024-02-16T02:35:56;835.47;;;788.17;;
17197;SDS011;8715;51.010;6.812;2024-02-16T02:38:42;845.25;;;797.15;;
17197;SDS011;8715;51.010;6.812;2024-02-16T02:41:28;840.95;;;793.20;;
17197;SDS011;8715;51.010;6.812;2024-02-16T02:44:13;836.65;;;789.60;;
17197;SDS011;8715;51.010;6.812;2024-02-16T02:46:58;846.15;;;797.83;;
17197;SDS011;8715;51.010;6.812;2024-02-16T02:49:43;836.85;;;789.78;;
17197;SDS011;8715;51.010;6.812;2024-02-16T02:52:29;841.33;;;793.35;;
17197;SDS011;8715;51.010;6.812;2024-02-16T02:55:16;844.38;;;796.55;;
17197;SDS011;8715;51.010;6.812;2024-02-16T02:58:01;839.00;;;791.38;;
17197;SDS011;8715;51.010;6.812;2024-02-16T03:00:47;833.33;;;786.58;;
17197;SDS011;8715;51.010;6.812;2024-02-16T03:03:32;837.58;;;789.88;;
17197;SDS011;8715;51.010;6.812;2024-02-16T03:06:17;833.47;;;786.83;;
17197;SDS011;8715;51.010;6.812;2024-02-16T03:09:03;840.00;;;792.67;;
17197;SDS011;8715;51.010;6.812;2024-02-16T03:11:50;828.47;;;782.10;;
17197;SDS011;8715;51.010;6.812;2024-02-16T03:14:35;834.20;;;787.42;;
17197;SDS011;8715;51.010;6.812;2024-02-16T03:17:21;827.88;;;781.28;;
17197;SDS011;8715;51.010;6.812;2024-02-16T03:20:06;830.08;;;783.90;;
17197;SDS011;8715;51.010;6.812;2024-02-16T03:22:52;833.28;;;786.72;;
17197;SDS011;8715;51.010;6.812;2024-02-16T03:25:37;836.42;;;789.65;;
17197;SDS011;8715;51.010;6.812;2024-02-16T03:28:24;836.97;;;790.40;;
17197;SDS011;8715;51.010;6.812;2024-02-16T03:31:14;832.78;;;786.15;;
17197;SDS011;8715;51.010;6.812;2024-02-16T03:33:59;836.58;;;789.92;;
17197;SDS011;8715;51.010;6.812;2024-02-16T03:36:44;837.53;;;790.97;;
17197;SDS011;8715;51.010;6.812;2024-02-16T03:39:29;831.83;;;785.72;;
17197;SDS011;8715;51.010;6.812;2024-02-16T03:42:14;834.90;;;788.55;;
17197;SDS011;8715;51.010;6.812;2024-02-16T03:45:00;835.90;;;789.15;;
17197;SDS011;8715;51.010;6.812;2024-02-16T03:47:45;834.35;;;787.88;;
17197;SDS011;8715;51.010;6.812;2024-02-16T03:50:32;832.08;;;785.30;;
17197;SDS011;8715;51.010;6.812;2024-02-16T03:53:17;835.13;;;788.65;;
17197;SDS011;8715;51.010;6.812;2024-02-16T03:56:02;829.30;;;783.00;;
17197;SDS011;8715;51.010;6.812;2024-02-16T03:58:47;836.13;;;789.50;;
17197;SDS011;8715;51.010;6.812;2024-02-16T04:01:33;831.55;;;785.15;;
17197;SDS011;8715;51.010;6.812;2024-02-16T04:04:18;832.25;;;785.90;;
17197;SDS011;8715;51.010;6.812;2024-02-16T04:07:04;833.47;;;786.70;;
17197;SDS011;8715;51.010;6.812;2024-02-16T04:09:50;834.78;;;787.85;;
17197;SDS011;8715;51.010;6.812;2024-02-16T04:12:35;835.97;;;789.05;;
17197;SDS011;8715;51.010;6.812;2024-02-16T04:15:21;833.53;;;786.75;;
17197;SDS011;8715;51.010;6.812;2024-02-16T04:18:07;837.83;;;790.92;;
17197;SDS011;8715;51.010;6.812;2024-02-16T04:20:53;836.08;;;789.15;;
17197;SDS011;8715;51.010;6.812;2024-02-16T04:23:38;831.20;;;784.65;;
17197;SDS011;8715;51.010;6.812;2024-02-16T04:26:23;838.42;;;790.90;;
17197;SDS011;8715;51.010;6.812;2024-02-16T04:29:08;844.40;;;796.63;;
17197;SDS011;8715;51.010;6.812;2024-02-16T04:31:53;835.83;;;788.50;;
17197;SDS011;8715;51.010;6.812;2024-02-16T04:34:39;837.80;;;790.25;;
17197;SDS011;8715;51.010;6.812;2024-02-16T04:37:24;840.90;;;792.67;;
17197;SDS011;8715;51.010;6.812;2024-02-16T04:40:10;837.03;;;789.63;;
17197;SDS011;8715;51.010;6.812;2024-02-16T04:42:56;830.47;;;783.40;;
17197;SDS011;8715;51.010;6.812;2024-02-16T04:45:41;841.22;;;793.63;;
17197;SDS011;8715;51.010;6.812;2024-02-16T04:48:27;843.55;;;795.25;;
17197;SDS011;8715;51.010;6.812;2024-02-16T04:51:14;841.63;;;793.88;;
17197;SDS011;8715;51.010;6.812;2024-02-16T04:53:59;834.95;;;787.58;;
17197;SDS011;8715;51.010;6.812;2024-02-16T04:56:44;843.50;;;795.55;;
17197;SDS011;8715;51.010;6.812;2024-02-16T04:59:28;839.00;;;791.42;;
17197;SDS011;8715;51.010;6.812;2024-02-16T05:02:13;837.20;;;789.65;;
17197;SDS011;8715;51.010;6.812;2024-02-16T05:04:58;837.95;;;790.25;;
17197;SDS011;8715;51.010;6.812;2024-02-16T05:07:47;842.33;;;794.47;;
17197;SDS011;8715;51.010;6.812;2024-02-16T05:10:32;840.88;;;793.00;;
17197;SDS011;8715;51.010;6.812;2024-02-16T05:13:18;837.00;;;789.92;;
17197;SDS011;8715;51.010;6.812;2024-02-16T05:16:03;839.92;;;792.22;;
17197;SDS011;8715;51.010;6.812;2024-02-16T05:18:52;834.78;;;787.63;;
17197;SDS011;8715;51.010;6.812;2024-02-16T05:21:37;837.03;;;789.67;;
17197;SDS011;8715;51.010;6.812;2024-02-16T05:24:23;840.47;;;792.92;;
17197;SDS011;8715;51.010;6.812;2024-02-16T05:27:08;840.42;;;792.55;;
17197;SDS011;8715;51.010;6.812;2024-02-16T05:29:54;836.17;;;788.88;;
17197;SDS011;8715;51.010;6.812;2024-02-16T05:32:39;832.88;;;785.70;;
17197;SDS011;8715;51.010;6.812;2024-02-16T05:35:24;833.08;;;786.20;;
17197;SDS011;8715;51.010;6.812;2024-02-16T05:41:06;836.72;;;790.10;;
17197;SDS011;8715;51.010;6.812;2024-02-16T05:43:51;826.53;;;780.47;;
17197;SDS011;8715;51.010;6.812;2024-02-16T05:46:37;834.15;;;787.22;;
17197;SDS011;8715;51.010;6.812;2024-02-16T05:49:22;832.90;;;786.33;;
17197;SDS011;8715;51.010;6.812;2024-02-16T05:52:08;843.30;;;795.40;;
17197;SDS011;8715;51.010;6.812;2024-02-16T05:55:02;832.38;;;785.30;;
17197;SDS011;8715;51.010;6.812;2024-02-16T05:57:49;836.15;;;789.20;;
17197;SDS011;8715;51.010;6.812;2024-02-16T06:00:34;842.70;;;794.90;;
17197;SDS011;8715;51.010;6.812;2024-02-16T06:03:19;830.80;;;783.83;;
17197;SDS011;8715;51.010;6.812;2024-02-16T06:06:05;834.55;;;787.53;;
17197;SDS011;8715;51.010;6.812;2024-02-16T06:08:52;835.45;;;788.53;;
17197;SDS011;8715;51.010;6.812;2024-02-16T06:11:37;834.08;;;787.33;;
17197;SDS011;8715;51.010;6.812;2024-02-16T06:14:23;832.05;;;785.50;;
17197;SDS011;8715;51.010;6.812;2024-02-16T06:17:09;837.72;;;790.20;;
17197;SDS011;8715;51.010;6.812;2024-02-16T06:19:54;836.75;;;789.38;;
17197;SDS011;8715;51.010;6.812;2024-02-16T06:22:39;841.42;;;793.58;;
17197;SDS011;8715;51.010;6.812;2024-02-16T06:25:24;836.75;;;789.58;;
17197;SDS011;8715;51.010;6.812;2024-02-16T06:28:09;843.90;;;795.92;;
17197;SDS011;8715;51.010;6.812;2024-02-16T06:30:55;840.08;;;792.63;;
17197;SDS011;8715;51.010;6.812;2024-02-16T06:33:40;840.58;;;793.08;;
17197;SDS011;8715;51.010;6.812;2024-02-16T06:36:26;835.83;;;788.72;;
17197;SDS011;8715;51.010;6.812;2024-02-16T06:39:11;838.70;;;790.90;;
17197;SDS011;8715;51.010;6.812;2024-02-16T06:42:00;841.53;;;793.38;;
17197;SDS011;8715;51.010;6.812;2024-02-16T06:44:45;841.25;;;793.17;;
17197;SDS011;8715;51.010;6.812;2024-02-16T06:47:31;837.30;;;789.55;;
17197;SDS011;8715;51.010;6.812;2024-02-16T06:50:16;843.55;;;795.03;;
17197;SDS011;8715;51.010;6.812;2024-02-16T06:53:01;841.95;;;793.75;;
17197;SDS011;8715;51.010;6.812;2024-02-16T06:55:46;839.78;;;791.63;;
17197;SDS011;8715;51.010;6.812;2024-02-16T06:58:31;845.08;;;796.55;;
17197;SDS011;8715;51.010;6.812;2024-02-16T07:01:16;838.63;;;790.35;;
17197;SDS011;8715;51.010;6.812;2024-02-16T07:04:03;845.33;;;796.40;;
17197;SDS011;8715;51.010;6.812;2024-02-16T07:06:49;846.65;;;797.78;;
17197;SDS011;8715;51.010;6.812;2024-02-16T07:09:34;840.95;;;792.83;;
17197;SDS011;8715;51.010;6.812;2024-02-16T07:12:20;844.78;;;795.95;;
17197;SDS011;8715;51.010;6.812;2024-02-16T07:15:06;838.58;;;790.25;;
17197;SDS011;8715;51.010;6.812;2024-02-16T07:17:52;834.78;;;786.83;;
17197;SDS011;8715;51.010;6.812;2024-02-16T07:20:38;846.08;;;797.25;;
17197;SDS011;8715;51.010;6.812;2024-02-16T07:23:23;846.35;;;797.35;;
17197;SDS011;8715;51.010;6.812;2024-02-16T07:26:09;839.67;;;791.65;;
17197;SDS011;8715;51.010;6.812;2024-02-16T07:28:54;843.85;;;794.97;;
17197;SDS011;8715;51.010;6.812;2024-02-16T07:31:39;842.08;;;793.47;;
17197;SDS011;8715;51.010;6.812;2024-02-16T07:34:24;845.85;;;796.90;;
17197;SDS011;8715;51.010;6.812;2024-02-16T07:37:10;842.72;;;794.10;;
17197;SDS011;8715;51.010;6.812;2024-02-16T07:39:56;850.53;;;800.78;;
17197;SDS011;8715;51.010;6.812;2024-02-16T07:42:41;845.92;;;796.45;;
17197;SDS011;8715;51.010;6.812;2024-02-16T07:45:28;847.50;;;797.70;;
17197;SDS011;8715;51.010;6.812;2024-02-16T07:48:13;841.13;;;792.00;;
17197;SDS011;8715;51.010;6.812;2024-02-16T07:50:58;846.70;;;797.15;;
17197;SDS011;8715;51.010;6.812;2024-02-16T07:56:33;842.97;;;794.53;;
17197;SDS011;8715;51.010;6.812;2024-02-16T07:59:18;841.22;;;792.17;;
17197;SDS011;8715;51.010;6.812;2024-02-16T08:02:03;853.25;;;803.35;;
17197;SDS011;8715;51.010;6.812;2024-02-16T08:04:48;843.90;;;794.80;;
17197;SDS011;8715;51.010;6.812;2024-02-16T08:07:34;856.25;;;805.78;;
17197;SDS011;8715;51.010;6.812;2024-02-16T08:10:19;847.75;;;798.05;;
17197;SDS011;8715;51.010;6.812;2024-02-16T08:13:06;848.20;;;798.40;;
17197;SDS011;8715;51.010;6.812;2024-02-16T08:15:51;841.47;;;792.28;;
17197;SDS011;8715;51.010;6.812;2024-02-16T08:18:36;851.15;;;800.92;;
17197;SDS011;8715;51.010;6.812;2024-02-16T08:21:21;856.42;;;805.45;;
17197;SDS011;8715;51.010;6.812;2024-02-16T08:24:06;855.05;;;804.30;;
17197;SDS011;8715;51.010;6.812;2024-02-16T08:26:52;851.70;;;800.78;;
17197;SDS011;8715;51.010;6.812;2024-02-16T08:29:38;847.70;;;797.58;;
17197;SDS011;8715;51.010;6.812;2024-02-16T08:32:23;853.88;;;803.08;;
17197;SDS011;8715;51.010;6.812;2024-02-16T08:35:08;849.95;;;799.70;;
17197;SDS011;8715;51.010;6.812;2024-02-16T08:37:53;851.08;;;800.42;;
17197;SDS011;8715;51.010;6.812;2024-02-16T08:40:39;855.53;;;804.15;;
17197;SDS011;8715;51.010;6.812;2024-02-16T08:43:24;858.08;;;806.35;;
17197;SDS011;8715;51.010;6.812;2024-02-16T08:46:11;859.63;;;807.55;;
17197;SDS011;8715;51.010;6.812;2024-02-16T08:48:56;862.50;;;810.38;;
17197;SDS011;8715;51.010;6.812;2024-02-16T08:51:41;855.50;;;803.97;;
17197;SDS011;8715;51.010;6.812;2024-02-16T08:54:26;848.45;;;797.78;;
17197;SDS011;8715;51.010;6.812;2024-02-16T08:57:11;857.72;;;805.92;;
17197;SDS011;8715;51.010;6.812;2024-02-16T08:59:57;856.95;;;805.15;;
17197;SDS011;8715;51.010;6.812;2024-02-16T09:02:43;857.38;;;805.47;;
17197;SDS011;8715;51.010;6.812;2024-02-16T09:05:29;852.63;;;801.28;;
17197;SDS011;8715;51.010;6.812;2024-02-16T09:08:13;866.63;;;813.72;;
17197;SDS011;8715;51.010;6.812;2024-02-16T09:10:59;854.58;;;802.85;;
17197;SDS011;8715;51.010;6.812;2024-02-16T09:13:44;858.60;;;806.13;;
17197;SDS011;8715;51.010;6.812;2024-02-16T09:16:29;857.42;;;805.33;;
17197;SDS011;8715;51.010;6.812;2024-02-16T09:19:15;854.70;;;802.60;;
17197;SDS011;8715;51.010;6.812;2024-02-16T09:22:01;860.97;;;808.28;;
17197;SDS011;8715;51.010;6.812;2024-02-16T09:24:46;856.40;;;804.33;;
17197;SDS011;8715;51.010;6.812;2024-02-16T09:27:31;859.70;;;807.15;;
17197;SDS011;8715;51.010;6.812;2024-02-16T09:30:16;861.95;;;808.90;;
17197;SDS011;8715;51.010;6.812;2024-02-16T09:33:01;865.88;;;812.47;;
17197;SDS011;8715;51.010;6.812;2024-02-16T09:35:48;859.28;;;806.10;;
17197;SDS011;8715;51.010;6.812;2024-02-16T09:38:33;861.65;;;808.83;;
17197;SDS011;8715;51.010;6.812;2024-02-16T09:41:18;863.15;;;810.08;;
17197;SDS011;8715;51.010;6.812;2024-02-16T09:44:03;861.97;;;808.95;;
17197;SDS011;8715;51.010;6.812;2024-02-16T09:46:48;861.05;;;808.05;;
17197;SDS011;8715;51.010;6.812;2024-02-16T09:49:33;861.78;;;808.15;;
17197;SDS011;8715;51.010;6.812;2024-02-16T09:52:19;862.80;;;809.25;;
17197;SDS011;8715;51.010;6.812;2024-02-16T09:55:05;869.67;;;815.08;;
17197;SDS011;8715;51.010;6.812;2024-02-16T09:57:58;863.50;;;809.30;;
17197;SDS011;8715;51.010;6.812;2024-02-16T10:00:47;865.22;;;811.20;;
17197;SDS011;8715;51.010;6.812;2024-02-16T10:03:32;860.75;;;806.90;;
17197;SDS011;8715;51.010;6.812;2024-02-16T10:06:17;871.45;;;816.85;;
17197;SDS011;8715;51.010;6.812;2024-02-16T10:09:06;870.70;;;816.22;;
17197;SDS011;8715;51.010;6.812;2024-02-16T10:11:51;861.55;;;808.05;;
17197;SDS011;8715;51.010;6.812;2024-02-16T10:14:36;862.97;;;809.35;;
17197;SDS011;8715;51.010;6.812;2024-02-16T10:17:24;865.92;;;811.95;;
17197;SDS011;8715;51.010;6.812;2024-02-16T10:20:09;863.85;;;810.00;;
17197;SDS011;8715;51.010;6.812;2024-02-16T10:23:04;862.92;;;809.30;;
17197;SDS011;8715;51.010;6.812;2024-02-16T10:25:51;861.90;;;808.35;;
17197;SDS011;8715;51.010;6.812;2024-02-16T10:28:36;864.78;;;810.58;;
17197;SDS011;8715;51.010;6.812;2024-02-16T10:31:22;871.60;;;816.85;;
17197;SDS011;8715;51.010;6.812;2024-02-16T10:34:11;862.20;;;808.45;;
17197;SDS011;8715;51.010;6.812;2024-02-16T10:36:57;862.38;;;808.05;;
17197;SDS011;8715;51.010;6.812;2024-02-16T10:39:44;863.80;;;809.58;;
17197;SDS011;8715;51.010;6.812;2024-02-16T10:42:31;864.75;;;810.38;;
17197;SDS011;8715;51.010;6.812;2024-02-16T10:45:16;861.55;;;807.53;;
17197;SDS011;8715;51.010;6.812;2024-02-16T10:48:03;863.50;;;809.15;;
17197;SDS011;8715;51.010;6.812;2024-02-16T10:50:48;862.00;;;807.97;;
17197;SDS011;8715;51.010;6.812;2024-02-16T10:53:34;867.22;;;813.35;;
17197;SDS011;8715;51.010;6.812;2024-02-16T10:56:27;870.30;;;816.00;;
17197;SDS011;8715;51.010;6.812;2024-02-16T10:59:15;865.67;;;811.22;;
17197;SDS011;8715;51.010;6.812;2024-02-16T11:02:01;866.50;;;812.03;;
17197;SDS011;8715;51.010;6.812;2024-02-16T11:04:46;866.85;;;812.35;;
17197;SDS011;8715;51.010;6.812;2024-02-16T11:07:32;861.53;;;807.78;;
17197;SDS011;8715;51.010;6.812;2024-02-16T11:10:17;868.03;;;812.97;;
17197;SDS011;8715;51.010;6.812;2024-02-16T11:13:03;866.97;;;812.45;;
17197;SDS011;8715;51.010;6.812;2024-02-16T11:15:57;870.65;;;815.55;;
17197;SDS011;8715;51.010;6.812;2024-02-16T11:18:43;866.08;;;811.17;;
17197;SDS011;8715;51.010;6.812;2024-02-16T11:21:30;862.05;;;807.97;;
17197;SDS011;8715;51.010;6.812;2024-02-16T11:24:14;863.53;;;809.25;;
17197;SDS011;8715;51.010;6.812;2024-02-16T11:27:04;867.85;;;812.83;;
17197;SDS011;8715;51.010;6.812;2024-02-16T11:29:49;865.33;;;810.65;;
17197;SDS011;8715;51.010;6.812;2024-02-16T11:32:36;871.17;;;816.25;;
17197;SDS011;8715;51.010;6.812;2024-02-16T11:35:21;865.75;;;810.88;;
17197;SDS011;8715;51.010;6.812;2024-02-16T11:38:06;872.10;;;817.15;;
17197;SDS011;8715;51.010;6.812;2024-02-16T11:40:56;866.50;;;811.45;;
17197;SDS011;8715;51.010;6.812;2024-02-16T11:43:41;867.30;;;812.80;;
17197;SDS011;8715;51.010;6.812;2024-02-16T11:46:26;867.97;;;813.10;;
17197;SDS011;8715;51.010;6.812;2024-02-16T11:49:12;867.65;;;812.75;;
17197;SDS011;8715;51.010;6.812;2024-02-16T11:51:59;869.30;;;814.15;;
17197;SDS011;8715;51.010;6.812;2024-02-16T11:54:43;864.80;;;810.47;;
17197;SDS011;8715;51.010;6.812;2024-02-16T11:57:29;870.55;;;815.22;;
17197;SDS011;8715;51.010;6.812;2024-02-16T12:00:14;867.95;;;813.05;;
17197;SDS011;8715;51.010;6.812;2024-02-16T12:02:59;869.05;;;813.92;;
17197;SDS011;8715;51.010;6.812;2024-02-16T12:05:50;863.10;;;809.05;;
17197;SDS011;8715;51.010;6.812;2024-02-16T12:08:36;867.78;;;813.22;;
17197;SDS011;8715;51.010;6.812;2024-02-16T12:11:23;868.75;;;814.35;;
17197;SDS011;8715;51.010;6.812;2024-02-16T12:14:08;865.47;;;810.95;;
17197;SDS011;8715;51.010;6.812;2024-02-16T12:16:55;865.03;;;810.67;;
17197;SDS011;8715;51.010;6.812;2024-02-16T12:19:43;864.22;;;810.17;;
17197;SDS011;8715;51.010;6.812;2024-02-16T12:22:29;859.72;;;806.17;;
17197;SDS011;8715;51.010;6.812;2024-02-16T12:25:14;862.15;;;808.10;;
17197;SDS011;8715;51.010;6.812;2024-02-16T12:27:59;861.72;;;808.22;;
17197;SDS011;8715;51.010;6.812;2024-02-16T12:30:44;866.00;;;811.63;;
17197;SDS011;8715;51.010;6.812;2024-02-16T12:33:29;868.00;;;813.95;;
17197;SDS011;8715;51.010;6.812;2024-02-16T12:36:14;861.47;;;808.17;;
17197;SDS011;8715;51.010;6.812;2024-02-16T12:39:01;862.28;;;809.38;;
17197;SDS011;8715;51.010;6.812;2024-02-16T12:41:47;857.63;;;804.72;;
17197;SDS011;8715;51.010;6.812;2024-02-16T12:44:33;859.90;;;807.10;;
17197;SDS011;8715;51.010;6.812;2024-02-16T12:47:18;859.85;;;806.28;;
17197;SDS011;8715;51.010;6.812;2024-02-16T12:50:04;852.92;;;801.20;;
17197;SDS011;8715;51.010;6.812;2024-02-16T12:52:49;855.75;;;803.30;;
17197;SDS011;8715;51.010;6.812;2024-02-16T12:55:35;853.30;;;801.45;;
17197;SDS011;8715;51.010;6.812;2024-02-16T12:58:21;859.53;;;807.10;;
17197;SDS011;8715;51.010;6.812;2024-02-16T13:01:06;853.40;;;801.83;;
17197;SDS011;8715;51.010;6.812;2024-02-16T13:03:51;853.53;;;801.50;;
17197;SDS011;8715;51.010;6.812;2024-02-16T13:06:35;852.13;;;800.45;;
17197;SDS011;8715;51.010;6.812;2024-02-16T13:09:21;854.38;;;802.67;;
17197;SDS011;8715;51.010;6.812;2024-02-16T13:12:07;854.22;;;802.63;;
17197;SDS011;8715;51.010;6.812;2024-02-16T13:14:52;859.60;;;807.08;;
17197;SDS011;8715;51.010;6.812;2024-02-16T13:17:37;852.15;;;800.65;;
17197;SDS011;8715;51.010;6.812;2024-02-16T13:20:22;856.35;;;804.40;;
17197;SDS011;8715;51.010;6.812;2024-02-16T13:23:07;863.92;;;810.92;;
17197;SDS011;8715;51.010;6.812;2024-02-16T13:25:53;857.45;;;805.15;;
17197;SDS011;8715;51.010;6.812;2024-02-16T13:28:39;857.50;;;805.20;;
17197;SDS011;8715;51.010;6.812;2024-02-16T13:31:24;858.35;;;805.85;;
17197;SDS011;8715;51.010;6.812;2024-02-16T13:34:09;860.25;;;807.75;;
17197;SDS011;8715;51.010;6.812;2024-02-16T13:36:55;855.53;;;803.42;;
17197;SDS011;8715;51.010;6.812;2024-02-16T13:39:40;854.05;;;801.75;;
17197;SDS011;8715;51.010;6.812;2024-02-16T13:42:25;854.40;;;802.67;;
17197;SDS011;8715;51.010;6.812;2024-02-16T13:45:13;854.17;;;802.60;;
17197;SDS011;8715;51.010;6.812;2024-02-16T13:47:58;851.55;;;799.55;;
17197;SDS011;8715;51.010;6.812;2024-02-16T13:50:45;854.13;;;802.35;;
17197;SDS011;8715;51.010;6.812;2024-02-16T13:53:30;852.70;;;801.20;;
17197;SDS011;8715;51.010;6.812;2024-02-16T13:56:15;858.78;;;806.88;;
17197;SDS011;8715;51.010;6.812;2024-02-16T13:59:00;845.75;;;794.88;;
17197;SDS011;8715;51.010;6.812;2024-02-16T14:01:47;849.55;;;798.40;;
17197;SDS011;8715;51.010;6.812;2024-02-16T14:04:32;861.55;;;809.33;;
17197;SDS011;8715;51.010;6.812;2024-02-16T14:07:16;855.88;;;804.45;;
17197;SDS011;8715;51.010;6.812;2024-02-16T14:10:02;859.13;;;806.95;;
17197;SDS011;8715;51.010;6.812;2024-02-16T14:12:47;852.45;;;801.00;;
17197;SDS011;8715;51.010;6.812;2024-02-16T14:15:32;855.08;;;803.45;;
17197;SDS011;8715;51.010;6.812;2024-02-16T14:18:19;857.30;;;805.95;;
17197;SDS011;8715;51.010;6.812;2024-02-16T14:21:04;854.85;;;803.17;;
17197;SDS011;8715;51.010;6.812;2024-02-16T14:23:49;846.28;;;795.55;;
17197;SDS011;8715;51.010;6.812;2024-02-16T14:26:34;846.22;;;795.53;;
17197;SDS011;8715;51.010;6.812;2024-02-16T14:29:20;859.53;;;807.80;;
17197;SDS011;8715;51.010;6.812;2024-02-16T14:32:04;854.83;;;803.22;;
17197;SDS011;8715;51.010;6.812;2024-02-16T14:34:51;852.72;;;801.88;;
17197;SDS011;8715;51.010;6.812;2024-02-16T14:37:37;853.38;;;802.42;;
17197;SDS011;8715;51.010;6.812;2024-02-16T14:40:22;857.38;;;805.85;;
17197;SDS011;8715;51.010;6.812;2024-02-16T14:43:07;856.17;;;805.17;;
17197;SDS011;8715;51.010;6.812;2024-02-16T14:45:52;853.45;;;802.33;;
17197;SDS011;8715;51.010;6.812;2024-02-16T14:48:38;856.97;;;805.58;;
17197;SDS011;8715;51.010;6.812;2024-02-16T14:51:24;856.15;;;805.03;;
17197;SDS011;8715;51.010;6.812;2024-02-16T14:54:09;854.75;;;803.55;;
17197;SDS011;8715;51.010;6.812;2024-02-16T14:56:54;847.72;;;797.28;;
17197;SDS011;8715;51.010;6.812;2024-02-16T14:59:39;846.60;;;796.08;;
17197;SDS011;8715;51.010;6.812;2024-02-16T15:02:24;849.65;;;798.58;;
17197;SDS011;8715;51.010;6.812;2024-02-16T15:05:09;850.33;;;799.70;;
17197;SDS011;8715;51.010;6.812;2024-02-16T15:07:56;853.55;;;802.60;;
17197;SDS011;8715;51.010;6.812;2024-02-16T15:10:41;855.92;;;804.53;;
17197;SDS011;8715;51.010;6.812;2024-02-16T15:13:27;853.17;;;802.30;;
17197;SDS011;8715;51.010;6.812;2024-02-16T15:16:14;846.05;;;795.25;;
17197;SDS011;8715;51.010;6.812;2024-02-16T15:18:59;849.40;;;798.60;;
17197;SDS011;8715;51.010;6.812;2024-02-16T15:21:44;851.15;;;800.47;;
17197;SDS011;8715;51.010;6.812;2024-02-16T15:24:30;844.53;;;794.78;;
17197;SDS011;8715;51.010;6.812;2024-02-16T15:27:15;847.97;;;797.70;;
17197;SDS011;8715;51.010;6.812;2024-02-16T15:30:01;849.22;;;799.30;;
17197;SDS011;8715;51.010;6.812;2024-02-16T15:32:46;845.83;;;795.92;;
17197;SDS011;8715;51.010;6.812;2024-02-16T15:35:31;848.22;;;798.35;;
17197;SDS011;8715;51.010;6.812;2024-02-16T15:38:16;849.85;;;799.78;;
17197;SDS011;8715;51.010;6.812;2024-02-16T15:41:03;851.53;;;801.70;;
17197;SDS011;8715;51.010;6.812;2024-02-16T15:43:48;850.60;;;800.70;;
17197;SDS011;8715;51.010;6.812;2024-02-16T15:46:34;842.20;;;792.67;;
17197;SDS011;8715;51.010;6.812;2024-02-16T15:49:19;840.70;;;791.80;;
17197;SDS011;8715;51.010;6.812;2024-02-16T15:52:04;840.67;;;791.85;;
17197;SDS011;8715;51.010;6.812;2024-02-16T15:54:51;848.05;;;798.50;;
17197;SDS011;8715;51.010;6.812;2024-02-16T15:57:38;853.40;;;803.55;;
17197;SDS011;8715;51.010;6.812;2024-02-16T16:00:23;847.83;;;797.95;;